createdAt,value
2022-08-16T00:00:04.235Z,63.65
2022-08-16T00:01:01.656Z,59.95
2022-08-16T00:02:01.679Z,59.35
2022-08-16T00:03:02.636Z,61.68
2022-08-16T00:04:01.644Z,65.10
2022-08-16T00:05:01.636Z,63.42
2022-08-16T00:06:01.603Z,62.18
2022-08-16T00:07:01.593Z,62.90
2022-08-16T00:08:01.592Z,63.13
2022-08-16T00:09:01.580Z,60.80
2022-08-16T00:10:01.581Z,63.06
2022-08-16T00:11:01.558Z,57.20
2022-08-16T00:12:01.548Z,64.31
2022-08-16T00:13:01.573Z,61.36
2022-08-16T00:14:01.534Z,66.20
2022-08-16T00:15:02.567Z,61.90
2022-08-16T00:16:01.513Z,66.77
2022-08-16T00:17:15.964Z,63.19
2022-08-16T00:18:02.489Z,62.59
2022-08-16T00:19:01.472Z,65.52
2022-08-16T00:20:02.544Z,66.09
2022-08-16T00:21:01.463Z,64.32
2022-08-16T00:22:06.749Z,64.75
2022-08-16T00:23:03.444Z,63.26
2022-08-16T00:24:04.791Z,65.99
2022-08-16T00:25:01.439Z,63.39
2022-08-16T00:26:36.329Z,63.89
2022-08-16T00:27:02.410Z,63.36
2022-08-16T00:28:01.388Z,66.44
2022-08-16T00:29:01.382Z,62.37
2022-08-16T00:30:19.138Z,65.91
2022-08-16T00:31:02.374Z,64.96
2022-08-16T00:32:05.720Z,65.78
2022-08-16T00:33:01.337Z,62.57
2022-08-16T00:34:01.331Z,63.48
2022-08-16T00:35:01.640Z,62.43
2022-08-16T00:36:01.325Z,65.29
2022-08-16T00:37:03.542Z,66.92
2022-08-16T00:38:01.289Z,62.74
2022-08-16T00:39:02.283Z,61.10
2022-08-16T00:40:01.348Z,66.96
2022-08-16T00:41:01.271Z,66.70
2022-08-16T00:42:01.248Z,62.25
2022-08-16T00:43:01.237Z,64.29
2022-08-16T00:44:01.228Z,61.40
2022-08-16T00:45:01.233Z,65.89
2022-08-16T00:46:34.156Z,62.57
2022-08-16T00:47:06.053Z,60.90
2022-08-16T00:48:01.187Z,63.48
2022-08-16T00:49:02.444Z,62.11
2022-08-16T00:50:01.182Z,66.69
2022-08-16T00:51:01.191Z,65.49
2022-08-16T00:52:02.146Z,66.28
2022-08-16T00:53:01.132Z,61.41
2022-08-16T00:54:01.137Z,67.30
2022-08-16T00:55:01.116Z,63.38
2022-08-16T00:56:01.120Z,62.55
2022-08-16T00:57:01.098Z,63.93
2022-08-16T00:58:01.088Z,59.65
2022-08-16T00:59:01.339Z,65.26
2022-08-16T01:00:01.261Z,59.88
2022-08-16T01:01:01.115Z,63.95
2022-08-16T01:02:01.050Z,64.55
2022-08-16T01:03:02.043Z,66.33
2022-08-16T01:04:01.029Z,63.44
2022-08-16T01:05:11.241Z,61.67
2022-08-16T01:06:39.964Z,65.11
2022-08-16T01:07:03.008Z,64.10
2022-08-16T01:08:00.999Z,65.69
2022-08-16T01:09:00.984Z,66.19
2022-08-16T01:10:00.976Z,64.62
2022-08-16T01:11:02.570Z,65.50
2022-08-16T01:12:00.999Z,64.92
2022-08-16T01:13:00.946Z,65.88
2022-08-16T01:14:00.939Z,65.42
2022-08-16T01:15:00.927Z,66.06
2022-08-16T01:16:00.941Z,65.86
2022-08-16T01:17:00.906Z,60.35
2022-08-16T01:18:00.898Z,63.34
2022-08-16T01:19:00.882Z,63.41
2022-08-16T01:20:00.874Z,61.70
2022-08-16T01:21:00.879Z,63.84
2022-08-16T01:22:46.977Z,65.66
2022-08-16T01:23:02.205Z,64.36
2022-08-16T01:24:02.182Z,65.84
2022-08-16T01:25:00.822Z,65.63
2022-08-16T01:26:34.608Z,61.20
2022-08-16T01:27:04.022Z,59.81
2022-08-16T01:28:00.798Z,64.24
2022-08-16T01:29:00.783Z,65.69
2022-08-16T01:30:00.774Z,62.52
2022-08-16T01:31:00.778Z,64.12
2022-08-16T01:32:00.752Z,60.39
2022-08-16T01:33:02.383Z,66.66
2022-08-16T01:34:00.730Z,64.39
2022-08-16T01:35:00.726Z,60.40
2022-08-16T01:36:00.738Z,63.87
2022-08-16T01:37:00.704Z,66.77
2022-08-16T01:38:00.692Z,66.32
2022-08-16T01:39:00.685Z,64.75
2022-08-16T01:40:00.704Z,63.52
2022-08-16T01:41:01.820Z,68.27
2022-08-16T01:42:00.654Z,62.37
2022-08-16T01:43:00.642Z,65.15
2022-08-16T01:44:01.079Z,67.76
2022-08-16T01:45:00.637Z,66.18
2022-08-16T01:46:00.630Z,67.08
2022-08-16T01:47:01.604Z,64.97
2022-08-16T01:48:00.595Z,63.66
2022-08-16T01:49:00.585Z,59.15
2022-08-16T01:50:42.342Z,63.66
2022-08-16T01:51:09.711Z,68.65
2022-08-16T01:52:01.556Z,64.97
2022-08-16T01:53:00.582Z,65.21
2022-08-16T01:54:00.550Z,67.97
2022-08-16T01:55:00.525Z,64.95
2022-08-16T01:56:00.558Z,63.53
2022-08-16T01:57:00.510Z,64.42
2022-08-16T01:58:00.497Z,60.76
2022-08-16T01:59:00.502Z,65.17
2022-08-16T02:00:00.478Z,63.89
2022-08-16T02:01:00.534Z,64.54
2022-08-16T02:02:00.648Z,63.89
2022-08-16T02:03:00.464Z,64.61
2022-08-16T02:04:11.354Z,65.46
2022-08-16T02:05:01.437Z,63.90
2022-08-16T02:06:00.424Z,64.53
2022-08-16T02:07:00.431Z,64.44
2022-08-16T02:08:00.404Z,66.84
2022-08-16T02:09:00.391Z,64.67
2022-08-16T02:10:01.973Z,64.83
2022-08-16T02:11:00.379Z,64.52
2022-08-16T02:12:00.382Z,65.16
2022-08-16T02:13:01.434Z,64.52
2022-08-16T02:14:00.346Z,62.74
2022-08-16T02:15:00.336Z,65.09
2022-08-16T02:16:00.329Z,63.12
2022-08-16T02:17:00.337Z,66.88
2022-08-16T02:18:01.174Z,62.35
2022-08-16T02:19:00.301Z,64.75
2022-08-16T02:20:00.895Z,66.84
2022-08-16T02:21:01.279Z,66.01
2022-08-16T02:22:07.759Z,63.60
2022-08-16T02:23:01.650Z,66.97
2022-08-16T02:24:00.251Z,67.68
2022-08-16T02:25:00.240Z,62.13
2022-08-16T02:26:00.238Z,66.52
2022-08-16T02:27:00.238Z,68.45
2022-08-16T02:28:00.423Z,68.00
2022-08-16T02:29:00.200Z,66.43
2022-08-16T02:30:05.152Z,64.83
2022-08-16T02:31:01.182Z,65.81
2022-08-16T02:32:03.113Z,66.11
2022-08-16T02:33:00.166Z,64.00
2022-08-16T02:34:00.154Z,66.04
2022-08-16T02:35:01.144Z,63.93
2022-08-16T02:36:00.269Z,65.56
2022-08-16T02:37:00.159Z,64.91
2022-08-16T02:38:01.697Z,65.85
2022-08-16T02:39:01.103Z,66.44
2022-08-16T02:40:00.200Z,67.41
2022-08-16T02:41:00.081Z,65.06
2022-08-16T02:42:00.100Z,66.34
2022-08-16T02:43:00.067Z,65.61
2022-08-16T02:44:00.066Z,66.98
2022-08-16T02:45:00.042Z,68.06
2022-08-16T02:46:00.033Z,66.57
2022-08-16T02:47:00.025Z,66.29
2022-08-16T02:48:01.344Z,67.41
2022-08-16T02:49:01.771Z,66.50
2022-08-16T02:50:53.900Z,64.77
2022-08-16T02:51:10.366Z,68.08
2022-08-16T02:52:00.974Z,67.73
2022-08-16T02:52:59.981Z,63.91
2022-08-16T02:53:59.956Z,66.73
2022-08-16T02:54:59.945Z,66.77
2022-08-16T02:56:00.511Z,62.47
2022-08-16T02:56:59.938Z,66.47
2022-08-16T02:57:59.932Z,66.00
2022-08-16T02:58:59.921Z,66.89
2022-08-16T02:59:59.900Z,69.39
2022-08-16T03:00:59.924Z,69.51
2022-08-16T03:01:59.947Z,69.30
2022-08-16T03:02:59.906Z,64.75
2022-08-16T03:04:39.885Z,67.66
2022-08-16T03:05:00.852Z,68.87
2022-08-16T03:05:59.842Z,65.92
2022-08-16T03:06:59.829Z,67.19
2022-08-16T03:07:59.867Z,66.65
2022-08-16T03:08:59.997Z,65.04
2022-08-16T03:10:00.565Z,63.80
2022-08-16T03:10:59.790Z,67.64
2022-08-16T03:12:00.892Z,67.56
2022-08-16T03:12:59.943Z,66.92
2022-08-16T03:13:59.781Z,66.85
2022-08-16T03:14:59.761Z,68.47
2022-08-16T03:15:59.746Z,67.75
2022-08-16T03:17:00.908Z,68.85
2022-08-16T03:18:00.725Z,69.81
2022-08-16T03:18:59.734Z,67.53
2022-08-16T03:20:02.443Z,68.47
2022-08-16T03:20:59.699Z,68.63
2022-08-16T03:21:59.689Z,67.36
2022-08-16T03:22:59.679Z,67.62
2022-08-16T03:23:59.687Z,65.71
2022-08-16T03:25:00.772Z,68.37
2022-08-16T03:25:59.688Z,69.30
2022-08-16T03:26:59.637Z,66.19
2022-08-16T03:27:59.847Z,68.68
2022-08-16T03:28:59.646Z,68.35
2022-08-16T03:29:59.605Z,66.27
2022-08-16T03:30:59.602Z,68.40
2022-08-16T03:32:01.255Z,64.30
2022-08-16T03:32:59.579Z,69.29
2022-08-16T03:33:59.631Z,68.15
2022-08-16T03:34:59.559Z,67.35
2022-08-16T03:35:59.549Z,67.49
2022-08-16T03:37:00.540Z,68.84
2022-08-16T03:38:02.724Z,69.55
2022-08-16T03:38:59.518Z,69.94
2022-08-16T03:40:02.847Z,63.58
2022-08-16T03:40:59.500Z,64.58
2022-08-16T03:41:59.897Z,66.72
2022-08-16T03:43:02.104Z,69.42
2022-08-16T03:44:00.467Z,69.88
2022-08-16T03:45:03.912Z,65.43
2022-08-16T03:46:00.448Z,66.41
2022-08-16T03:46:59.440Z,68.11
2022-08-16T03:47:59.909Z,70.52
2022-08-16T03:48:59.423Z,69.70
2022-08-16T03:49:59.459Z,67.10
2022-08-16T03:50:59.818Z,68.75
2022-08-16T03:51:59.393Z,65.80
2022-08-16T03:53:05.344Z,67.53
2022-08-16T03:54:01.796Z,64.94
2022-08-16T03:54:59.808Z,69.29
2022-08-16T03:55:59.357Z,65.68
2022-08-16T03:56:59.355Z,68.22
2022-08-16T03:57:59.338Z,67.05
2022-08-16T03:58:59.326Z,68.09
2022-08-16T03:59:59.319Z,68.33
2022-08-16T04:00:59.672Z,70.45
2022-08-16T04:01:59.294Z,68.70
2022-08-16T04:02:59.289Z,69.27
2022-08-16T04:03:59.279Z,68.14
2022-08-16T04:04:59.269Z,70.38
2022-08-16T04:05:59.278Z,70.73
2022-08-16T04:06:59.246Z,70.12
2022-08-16T04:07:59.236Z,69.66
2022-08-16T04:08:59.231Z,69.84
2022-08-16T04:09:59.216Z,68.31
2022-08-16T04:10:59.245Z,69.38
2022-08-16T04:11:59.200Z,66.38
2022-08-16T04:13:04.110Z,68.61
2022-08-16T04:14:08.530Z,68.94
2022-08-16T04:15:02.362Z,66.07
2022-08-16T04:15:59.206Z,65.13
2022-08-16T04:16:59.148Z,69.55
2022-08-16T04:17:59.138Z,67.63
2022-08-16T04:19:01.260Z,68.50
2022-08-16T04:19:59.918Z,69.57
2022-08-16T04:20:59.113Z,68.61
2022-08-16T04:22:00.889Z,69.38
2022-08-16T04:22:59.090Z,71.25
2022-08-16T04:23:59.084Z,71.59
2022-08-16T04:24:59.566Z,69.05
2022-08-16T04:26:02.054Z,69.77
2022-08-16T04:26:59.072Z,67.90
2022-08-16T04:28:52.389Z,68.48
2022-08-16T04:29:17.200Z,71.51
2022-08-16T04:30:03.293Z,69.85
2022-08-16T04:30:59.010Z,67.95
2022-08-16T04:31:59.032Z,68.94
2022-08-16T04:32:58.993Z,69.57
2022-08-16T04:33:58.986Z,71.52
2022-08-16T04:35:01.201Z,67.36
2022-08-16T04:35:59.981Z,66.36
2022-08-16T04:37:01.149Z,70.59
2022-08-16T04:37:58.944Z,68.57
2022-08-16T04:38:59.931Z,68.63
2022-08-16T04:39:58.953Z,69.10
2022-08-16T04:40:58.928Z,67.80
2022-08-16T04:41:58.907Z,69.27
2022-08-16T04:42:59.907Z,68.70
2022-08-16T04:43:58.888Z,66.89
2022-08-16T04:45:36.320Z,69.27
2022-08-16T04:46:00.729Z,73.11
2022-08-16T04:47:01.392Z,70.48
2022-08-16T04:47:58.861Z,70.23
2022-08-16T04:48:58.832Z,67.91
2022-08-16T04:49:58.845Z,68.98
2022-08-16T04:50:58.820Z,70.30
2022-08-16T04:51:58.810Z,70.10
2022-08-16T04:52:59.154Z,70.48
2022-08-16T04:53:58.786Z,69.01
2022-08-16T04:54:58.783Z,70.00
2022-08-16T04:55:58.766Z,68.91
2022-08-16T04:56:58.759Z,67.54
2022-08-16T04:57:58.764Z,68.37
2022-08-16T04:58:58.750Z,68.90
2022-08-16T04:59:58.729Z,68.92
2022-08-16T05:00:59.728Z,68.24
2022-08-16T05:01:59.562Z,67.87
2022-08-16T05:03:01.221Z,68.85
2022-08-16T05:04:01.046Z,69.53
2022-08-16T05:04:58.679Z,69.16
2022-08-16T05:06:02.955Z,66.73
2022-08-16T05:06:59.661Z,69.78
2022-08-16T05:08:00.186Z,67.27
2022-08-16T05:08:58.648Z,69.19
2022-08-16T05:09:59.630Z,67.50
2022-08-16T05:10:58.841Z,68.27
2022-08-16T05:11:58.609Z,70.20
2022-08-16T05:12:58.614Z,69.57
2022-08-16T05:14:06.827Z,67.83
2022-08-16T05:15:02.725Z,68.59
2022-08-16T05:15:58.572Z,67.21
2022-08-16T05:16:58.562Z,69.40
2022-08-16T05:17:59.700Z,70.79
2022-08-16T05:18:59.566Z,69.46
2022-08-16T05:19:58.665Z,68.54
2022-08-16T05:21:01.223Z,67.58
2022-08-16T05:21:58.513Z,69.83
2022-08-16T05:22:58.520Z,65.05
2022-08-16T05:24:00.286Z,65.83
2022-08-16T05:24:58.483Z,65.30
2022-08-16T05:25:58.474Z,68.14
2022-08-16T05:26:58.463Z,68.04
2022-08-16T05:27:58.469Z,66.22
2022-08-16T05:28:58.461Z,66.91
2022-08-16T05:30:01.268Z,68.27
2022-08-16T05:31:00.421Z,67.96
2022-08-16T05:31:59.413Z,69.04
2022-08-16T05:32:58.419Z,65.13
2022-08-16T05:33:58.408Z,68.05
2022-08-16T05:34:58.382Z,70.20
2022-08-16T05:35:58.374Z,67.08
2022-08-16T05:36:59.368Z,67.36
2022-08-16T05:37:58.374Z,67.32
2022-08-16T05:38:58.364Z,68.64
2022-08-16T05:39:58.414Z,67.65
2022-08-16T05:40:59.913Z,66.00
2022-08-16T05:41:58.320Z,68.83
2022-08-16T05:42:58.339Z,67.99
2022-08-16T05:43:58.952Z,68.45
2022-08-16T05:44:58.292Z,68.09
2022-08-16T05:45:58.291Z,67.61
2022-08-16T05:47:00.272Z,65.73
2022-08-16T05:47:59.743Z,66.26
2022-08-16T05:49:03.653Z,67.79
2022-08-16T05:49:59.238Z,68.15
2022-08-16T05:50:58.227Z,66.68
2022-08-16T05:51:58.220Z,66.68
2022-08-16T05:52:58.228Z,67.40
2022-08-16T05:53:58.215Z,68.40
2022-08-16T05:55:00.961Z,66.99
2022-08-16T05:55:58.189Z,67.16
2022-08-16T05:56:58.209Z,67.43
2022-08-16T05:57:58.160Z,65.26
2022-08-16T05:58:58.168Z,67.54
2022-08-16T05:59:59.842Z,65.67
2022-08-16T06:00:58.134Z,66.75
2022-08-16T06:01:58.172Z,66.59
2022-08-16T06:02:58.111Z,66.02
2022-08-16T06:03:58.126Z,65.21
2022-08-16T06:04:58.137Z,67.02
2022-08-16T06:06:00.399Z,66.37
2022-08-16T06:06:58.100Z,64.37
2022-08-16T06:07:58.471Z,65.04
2022-08-16T06:08:58.102Z,63.15
2022-08-16T06:09:58.048Z,66.91
2022-08-16T06:11:10.445Z,64.46
2022-08-16T06:11:59.033Z,65.48
2022-08-16T06:12:58.024Z,64.01
2022-08-16T06:13:58.582Z,67.27
2022-08-16T06:14:58.002Z,63.72
2022-08-16T06:15:57.989Z,62.75
2022-08-16T06:16:57.988Z,63.53
2022-08-16T06:17:58.970Z,67.31
2022-08-16T06:18:57.991Z,65.12
2022-08-16T06:19:58.967Z,64.64
2022-08-16T06:20:57.938Z,62.99
2022-08-16T06:21:57.927Z,64.03
2022-08-16T06:23:03.662Z,65.67
2022-08-16T06:24:01.162Z,64.05
2022-08-16T06:24:57.914Z,63.61
2022-08-16T06:25:57.888Z,65.81
2022-08-16T06:26:58.538Z,63.44
2022-08-16T06:27:58.295Z,63.40
2022-08-16T06:28:57.858Z,64.48
2022-08-16T06:29:57.876Z,64.81
2022-08-16T06:30:57.838Z,63.20
2022-08-16T06:31:57.825Z,63.59
2022-08-16T06:32:57.820Z,64.37
2022-08-16T06:33:57.813Z,63.47
2022-08-16T06:35:02.618Z,63.20
2022-08-16T06:35:59.911Z,64.79
2022-08-16T06:36:59.232Z,66.49
2022-08-16T06:37:57.768Z,65.18
2022-08-16T06:38:57.756Z,64.92
2022-08-16T06:39:57.789Z,64.80
2022-08-16T06:40:57.753Z,65.63
2022-08-16T06:41:57.725Z,64.01
2022-08-16T06:42:57.766Z,65.56
2022-08-16T06:43:57.707Z,63.37
2022-08-16T06:44:57.696Z,63.66
2022-08-16T06:45:57.708Z,62.83
2022-08-16T06:46:57.680Z,63.96
2022-08-16T06:47:58.678Z,63.71
2022-08-16T06:48:57.656Z,64.27
2022-08-16T06:49:57.646Z,65.99
2022-08-16T06:50:57.655Z,63.79
2022-08-16T06:52:02.886Z,63.41
2022-08-16T06:53:00.319Z,63.37
2022-08-16T06:53:57.615Z,64.13
2022-08-16T06:54:57.600Z,62.13
2022-08-16T06:55:57.603Z,63.24
2022-08-16T06:56:57.588Z,61.29
2022-08-16T06:57:57.559Z,61.00
2022-08-16T06:58:58.569Z,62.58
2022-08-16T06:59:58.535Z,63.98
2022-08-16T07:00:58.122Z,63.44
2022-08-16T07:01:58.448Z,65.57
2022-08-16T07:02:57.727Z,65.94
2022-08-16T07:03:57.560Z,64.79
2022-08-16T07:04:57.505Z,63.94
2022-08-16T07:05:57.512Z,63.28
2022-08-16T07:06:57.483Z,65.04
2022-08-16T07:07:57.473Z,64.35
2022-08-16T07:08:57.463Z,63.16
2022-08-16T07:09:57.450Z,63.22
2022-08-16T07:10:57.462Z,64.19
2022-08-16T07:12:02.916Z,63.34
2022-08-16T07:13:03.524Z,63.13
2022-08-16T07:14:22.660Z,62.52
2022-08-16T07:14:59.993Z,61.78
2022-08-16T07:15:58.423Z,60.29
2022-08-16T07:16:57.918Z,61.42
2022-08-16T07:17:57.378Z,62.17
2022-08-16T07:18:59.072Z,61.80
2022-08-16T07:20:02.445Z,61.85
2022-08-16T07:21:01.772Z,60.40
2022-08-16T07:22:00.024Z,63.03
2022-08-16T07:22:58.727Z,64.01
2022-08-16T07:24:05.953Z,63.98
2022-08-16T07:24:58.305Z,62.76
2022-08-16T07:25:57.300Z,61.17
2022-08-16T07:26:57.304Z,61.05
2022-08-16T07:27:57.279Z,61.97
2022-08-16T07:28:57.268Z,61.40
2022-08-16T07:29:57.267Z,63.03
2022-08-16T07:30:57.247Z,63.17
2022-08-16T07:31:57.254Z,62.90
2022-08-16T07:32:57.230Z,62.66
2022-08-16T07:33:57.225Z,63.38
2022-08-16T07:34:57.213Z,63.45
2022-08-16T07:35:57.200Z,63.23
2022-08-16T07:36:58.299Z,61.96
2022-08-16T07:37:57.182Z,62.22
2022-08-16T07:38:57.177Z,61.81
2022-08-16T07:39:57.187Z,62.98
2022-08-16T07:41:01.567Z,62.93
2022-08-16T07:41:58.165Z,62.45
2022-08-16T07:42:57.134Z,61.45
2022-08-16T07:43:57.122Z,62.61
2022-08-16T07:44:57.269Z,61.26
2022-08-16T07:45:57.106Z,62.41
2022-08-16T07:46:57.108Z,61.91
2022-08-16T07:47:57.085Z,62.71
2022-08-16T07:48:58.586Z,62.21
2022-08-16T07:49:58.450Z,61.72
2022-08-16T07:50:59.271Z,62.22
2022-08-16T07:51:58.070Z,61.20
2022-08-16T07:52:57.036Z,64.51
2022-08-16T07:54:02.355Z,64.10
2022-08-16T07:54:58.035Z,60.99
2022-08-16T07:55:57.021Z,62.49
2022-08-16T07:56:57.013Z,64.12
2022-08-16T07:57:59.790Z,62.47
2022-08-16T07:58:57.979Z,61.34
2022-08-16T07:59:57.357Z,62.41
2022-08-16T08:00:57.013Z,62.79
2022-08-16T08:01:56.969Z,61.23
2022-08-16T08:02:57.112Z,63.36
2022-08-16T08:03:56.930Z,63.14
2022-08-16T08:04:57.722Z,62.11
2022-08-16T08:05:56.906Z,62.54
2022-08-16T08:06:56.915Z,64.48
2022-08-16T08:07:57.623Z,62.69
2022-08-16T08:08:56.951Z,64.85
2022-08-16T08:09:56.865Z,63.59
2022-08-16T08:10:56.858Z,62.69
2022-08-16T08:12:00.671Z,59.87
2022-08-16T08:12:56.857Z,59.89
2022-08-16T08:13:56.835Z,63.69
2022-08-16T08:14:56.837Z,63.88
2022-08-16T08:15:56.810Z,64.56
2022-08-16T08:16:56.831Z,65.22
2022-08-16T08:17:56.798Z,63.49
2022-08-16T08:19:00.643Z,64.88
2022-08-16T08:19:56.769Z,61.17
2022-08-16T08:20:59.581Z,62.47
2022-08-16T08:21:59.026Z,62.26
2022-08-16T08:23:00.088Z,61.88
2022-08-16T08:23:56.735Z,63.06
2022-08-16T08:24:59.753Z,63.43
2022-08-16T08:25:57.717Z,62.70
2022-08-16T08:26:56.714Z,62.22
2022-08-16T08:27:57.659Z,61.18
2022-08-16T08:29:01.029Z,63.04
2022-08-16T08:30:49.995Z,62.30
2022-08-16T08:31:02.630Z,61.78
2022-08-16T08:31:57.654Z,61.79
2022-08-16T08:33:00.572Z,60.98
2022-08-16T08:33:56.632Z,61.67
2022-08-16T08:35:03.135Z,61.56
2022-08-16T08:35:57.610Z,61.21
2022-08-16T08:36:56.605Z,62.75
2022-08-16T08:37:56.716Z,62.82
2022-08-16T08:38:56.584Z,62.49
2022-08-16T08:39:56.627Z,62.30
2022-08-16T08:40:56.565Z,62.22
2022-08-16T08:41:56.559Z,63.13
2022-08-16T08:42:57.928Z,60.34
2022-08-16T08:43:56.585Z,60.64
2022-08-16T08:44:56.529Z,64.59
2022-08-16T08:45:56.516Z,63.22
2022-08-16T08:47:00.525Z,62.91
2022-08-16T08:47:58.412Z,63.10
2022-08-16T08:49:02.180Z,63.77
2022-08-16T08:49:58.189Z,61.56
2022-08-16T08:50:56.470Z,61.44
2022-08-16T08:51:56.455Z,63.07
2022-08-16T08:52:56.480Z,60.61
2022-08-16T08:53:57.919Z,63.04
2022-08-16T08:54:56.430Z,61.07
2022-08-16T08:55:58.907Z,64.29
2022-08-16T08:56:56.413Z,62.37
2022-08-16T08:57:56.399Z,60.80
2022-08-16T08:59:00.037Z,62.93
2022-08-16T08:59:56.382Z,62.47
2022-08-16T09:00:56.370Z,61.72
2022-08-16T09:01:58.626Z,60.36
2022-08-16T09:02:56.553Z,61.46
2022-08-16T09:03:56.398Z,63.56
2022-08-16T09:04:56.332Z,60.86
2022-08-16T09:05:56.323Z,58.55
2022-08-16T09:06:56.318Z,62.83
2022-08-16T09:08:02.029Z,61.40
2022-08-16T09:08:57.306Z,59.36
2022-08-16T09:10:06.221Z,62.12
2022-08-16T09:11:01.979Z,61.43
2022-08-16T09:12:06.462Z,62.60
2022-08-16T09:12:57.253Z,61.27
2022-08-16T09:13:56.265Z,62.07
2022-08-16T09:14:56.241Z,63.05
2022-08-16T09:15:56.225Z,62.27
2022-08-16T09:17:02.752Z,62.59
2022-08-16T09:17:57.225Z,62.88
2022-08-16T09:18:59.695Z,62.24
2022-08-16T09:19:58.526Z,62.56
2022-08-16T09:21:00.175Z,62.45
2022-08-16T09:21:56.374Z,62.81
2022-08-16T09:22:56.162Z,61.70
2022-08-16T09:23:56.160Z,62.75
2022-08-16T09:25:09.668Z,62.90
2022-08-16T09:25:57.134Z,60.48
2022-08-16T09:26:56.121Z,58.35
2022-08-16T09:27:58.046Z,61.03
2022-08-16T09:29:15.721Z,62.70
2022-08-16T09:30:00.659Z,62.10
2022-08-16T09:30:57.085Z,62.94
2022-08-16T09:31:56.073Z,61.66
2022-08-16T09:32:56.063Z,63.87
2022-08-16T09:33:56.065Z,64.11
2022-08-16T09:34:58.281Z,64.32
2022-08-16T09:35:56.055Z,61.51
2022-08-16T09:36:56.037Z,60.34
2022-08-16T09:38:00.522Z,62.22
2022-08-16T09:38:59.860Z,62.23
2022-08-16T09:39:56.037Z,63.14
2022-08-16T09:40:56.103Z,61.82
2022-08-16T09:41:55.987Z,59.57
2022-08-16T09:42:59.292Z,63.39
2022-08-16T09:44:00.499Z,58.94
2022-08-16T09:45:11.103Z,61.83
2022-08-16T09:45:56.938Z,61.79
2022-08-16T09:46:57.779Z,62.62
2022-08-16T09:47:58.477Z,61.27
2022-08-16T09:48:56.547Z,61.70
2022-08-16T09:49:55.913Z,62.23
2022-08-16T09:50:56.272Z,61.77
2022-08-16T09:51:57.273Z,62.41
2022-08-16T09:52:55.867Z,62.44
2022-08-16T09:53:55.863Z,63.38
2022-08-16T09:54:55.872Z,62.45
2022-08-16T09:55:56.850Z,61.51
2022-08-16T09:56:55.820Z,60.61
2022-08-16T09:57:56.826Z,61.46
2022-08-16T09:59:05.843Z,61.24
2022-08-16T09:59:56.817Z,61.15
2022-08-16T10:00:55.793Z,61.78
2022-08-16T10:01:55.796Z,60.23
2022-08-16T10:02:55.909Z,62.18
2022-08-16T10:04:02.047Z,62.66
2022-08-16T10:04:56.980Z,61.22
2022-08-16T10:05:55.749Z,61.67
2022-08-16T10:06:55.770Z,62.10
2022-08-16T10:07:55.965Z,62.93
2022-08-16T10:09:05.962Z,63.36
2022-08-16T10:09:56.709Z,61.58
2022-08-16T10:10:56.708Z,61.36
2022-08-16T10:11:56.686Z,61.37
2022-08-16T10:12:56.919Z,62.33
2022-08-16T10:13:55.666Z,63.83
2022-08-16T10:14:55.684Z,63.39
2022-08-16T10:15:56.067Z,63.78
2022-08-16T10:16:59.513Z,64.44
2022-08-16T10:18:01.288Z,63.37
2022-08-16T10:19:06.474Z,60.43
2022-08-16T10:19:56.646Z,60.10
2022-08-16T10:20:55.597Z,61.85
2022-08-16T10:21:56.345Z,60.61
2022-08-16T10:23:05.453Z,61.05
2022-08-16T10:23:57.564Z,59.94
2022-08-16T10:24:59.943Z,62.04
2022-08-16T10:27:16.311Z,63.45
2022-08-16T10:27:18.204Z,62.05
2022-08-16T10:28:05.905Z,62.31
2022-08-16T10:28:57.521Z,62.77
2022-08-16T10:30:00.813Z,61.16
2022-08-16T10:30:59.218Z,61.27
2022-08-16T10:31:55.503Z,60.41
2022-08-16T10:32:55.483Z,64.04
2022-08-16T10:33:55.476Z,63.10
2022-08-16T10:34:55.464Z,61.57
2022-08-16T10:35:57.628Z,60.18
2022-08-16T10:36:55.476Z,60.33
2022-08-16T10:37:55.436Z,63.27
2022-08-16T10:38:55.446Z,62.95
2022-08-16T10:39:55.744Z,63.39
2022-08-16T10:40:55.467Z,63.47
2022-08-16T10:41:55.403Z,60.68
2022-08-16T10:42:55.395Z,62.32
2022-08-16T10:43:55.382Z,62.31
2022-08-16T10:44:55.371Z,62.30
2022-08-16T10:45:59.876Z,63.52
2022-08-16T10:46:56.366Z,63.34
2022-08-16T10:48:03.271Z,61.34
2022-08-16T10:48:56.339Z,60.80
2022-08-16T10:49:55.356Z,60.13
2022-08-16T10:50:55.347Z,57.91
2022-08-16T10:52:02.018Z,60.97
2022-08-16T10:52:59.156Z,60.28
2022-08-16T10:53:56.287Z,60.98
2022-08-16T10:54:58.914Z,62.90
2022-08-16T10:55:57.823Z,60.84
2022-08-16T10:56:56.995Z,62.50
2022-08-16T10:57:55.248Z,63.09
2022-08-16T10:58:55.610Z,60.92
2022-08-16T10:59:58.475Z,59.91
2022-08-16T11:00:57.628Z,58.27
2022-08-16T11:03:01.313Z,60.89
2022-08-16T11:03:57.027Z,61.76
2022-08-16T11:05:10.979Z,61.54
2022-08-16T11:06:00.413Z,61.76
2022-08-16T11:07:57.397Z,62.17
2022-08-16T11:10:19.678Z,61.82
2022-08-16T11:11:04.889Z,61.27
2022-08-16T11:12:14.445Z,63.26
2022-08-16T11:12:57.319Z,62.32
2022-08-16T11:13:59.572Z,60.73
2022-08-16T11:15:13.502Z,61.00
2022-08-16T11:15:57.493Z,60.62
2022-08-16T11:17:10.745Z,61.59
2022-08-16T11:19:06.441Z,59.17
2022-08-16T11:20:41.426Z,60.94
2022-08-16T11:20:57.025Z,60.93
2022-08-16T11:22:57.016Z,61.33
2022-08-16T11:23:57.557Z,60.57
2022-08-16T11:26:07.736Z,62.59
2022-08-16T11:27:56.962Z,63.76
2022-08-16T11:29:56.943Z,61.26
2022-08-16T11:30:55.011Z,61.54
2022-08-16T11:31:55.921Z,61.08
2022-08-16T11:32:54.932Z,61.22
2022-08-16T11:33:54.986Z,61.19
2022-08-16T11:35:14.393Z,62.00
2022-08-16T11:37:01.182Z,60.88
2022-08-16T11:38:46.979Z,60.15
2022-08-16T11:38:57.960Z,62.10
2022-08-16T11:39:59.684Z,62.34
2022-08-16T11:40:55.830Z,62.26
2022-08-16T11:41:55.822Z,63.91
2022-08-16T11:42:54.849Z,61.31
2022-08-16T11:43:54.898Z,63.36
2022-08-16T11:44:56.900Z,63.35
2022-08-16T11:45:54.783Z,62.08
2022-08-16T11:46:54.772Z,61.07
2022-08-16T11:47:54.805Z,61.84
2022-08-16T11:48:54.753Z,60.56
2022-08-16T11:49:54.738Z,61.20
2022-08-16T11:50:54.731Z,61.97
2022-08-16T11:51:54.719Z,62.43
2022-08-16T11:52:54.730Z,61.59
2022-08-16T11:53:54.772Z,60.94
2022-08-16T11:54:57.155Z,62.13
2022-08-16T11:55:55.688Z,58.82
2022-08-16T11:56:57.103Z,63.04
2022-08-16T11:57:56.401Z,62.14
2022-08-16T11:58:56.903Z,63.03
2022-08-16T11:59:54.983Z,62.23
2022-08-16T12:00:54.674Z,64.16
2022-08-16T12:01:59.061Z,63.28
2022-08-16T12:02:55.610Z,62.12
2022-08-16T12:03:54.868Z,61.46
2022-08-16T12:04:54.595Z,64.04
2022-08-16T12:05:54.588Z,63.06
2022-08-16T12:06:54.861Z,63.29
2022-08-16T12:07:55.568Z,63.93
2022-08-16T12:08:54.584Z,64.08
2022-08-16T12:09:54.547Z,63.30
2022-08-16T12:10:54.539Z,61.97
2022-08-16T12:11:55.532Z,61.85
2022-08-16T12:12:54.515Z,61.68
2022-08-16T12:13:54.549Z,60.23
2022-08-16T12:14:59.754Z,60.63
2022-08-16T12:15:56.481Z,59.64
2022-08-16T12:16:55.410Z,61.83
2022-08-16T12:17:54.458Z,61.50
2022-08-16T12:18:54.458Z,62.76
2022-08-16T12:19:54.468Z,62.06
2022-08-16T12:20:55.200Z,60.81
2022-08-16T12:21:59.368Z,59.98
2022-08-16T12:22:55.421Z,58.49
2022-08-16T12:23:54.460Z,58.27
2022-08-16T12:24:54.415Z,59.19
2022-08-16T12:25:54.389Z,60.82
2022-08-16T12:26:54.381Z,60.47
2022-08-16T12:27:54.372Z,60.07
2022-08-16T12:28:56.403Z,59.57
2022-08-16T12:29:54.367Z,58.15
2022-08-16T12:30:54.340Z,60.44
2022-08-16T12:31:59.132Z,61.13
2022-08-16T12:32:56.442Z,63.22
2022-08-16T12:33:57.559Z,62.69
2022-08-16T12:34:54.328Z,61.65
2022-08-16T12:35:54.296Z,61.61
2022-08-16T12:36:54.287Z,63.00
2022-08-16T12:37:56.674Z,61.69
2022-08-16T12:38:54.271Z,60.78
2022-08-16T12:39:54.341Z,59.70
2022-08-16T12:40:57.216Z,60.70
2022-08-16T12:41:54.238Z,61.91
2022-08-16T12:42:54.683Z,61.28
2022-08-16T12:43:57.161Z,60.76
2022-08-16T12:44:55.235Z,63.29
2022-08-16T12:45:54.196Z,64.15
2022-08-16T12:46:54.189Z,64.41
2022-08-16T12:48:10.014Z,63.04
2022-08-16T12:48:56.168Z,64.62
2022-08-16T12:49:54.152Z,63.84
2022-08-16T12:50:54.161Z,63.02
2022-08-16T12:51:59.713Z,63.17
2022-08-16T12:52:55.312Z,64.07
2022-08-16T12:53:54.119Z,63.86
2022-08-16T12:54:54.817Z,61.38
2022-08-16T12:55:54.112Z,63.37
2022-08-16T12:56:54.097Z,63.87
2022-08-16T12:57:58.488Z,62.06
2022-08-16T12:58:55.951Z,64.34
2022-08-16T12:59:54.054Z,63.41
2022-08-16T13:00:54.108Z,62.69